Terminal Aerodrome Forecast
Issued by NWS Cleveland, OH

Home | Current Version | Previous Version | Graphics & Text | Print | Product List | Glossary On
Versions: 1 2 3 4 5 6 7 8 9 10 11 12 13 14 15 16 17 18 19 20 21
000
FTUS41 KCLE 260826 AAA
TAFTOL
TAF AMD
KTOL 260826Z 2608/2706 VRB04KT 5SM BR SKC
      TEMPO 2609/2613 3SM BR
     FM261500 30005KT P6SM SCT250=

USA.gov is the U.S. government's official web portal to all federal, state and local government web resources and services.